Time;durP1;ratioP1;P1;durP2;ratioP2;P2;SDS_P1;SDS_P2;PMS_P1;PMS_P2;Temp;Humidity;BMP_temperature;BMP_pressure;BME280_temperature;BME280_humidity;BME280_pressure;Samples;Min_cycle;Max_cycle;Signal;HPM_P1;HPM_P2
2023/12/13 00:03:07;;;;;;;8.43;2.13;;;;;8.60;99128.00;;;;10131202;29;20223;-86
2023/12/13 00:08:08;;;;;;;13.57;1.93;;;;;8.50;99117.00;;;;10117181;29;20707;-84
2023/12/13 00:13:10;;;;;;;8.30;1.50;;;;;8.50;99114.00;;;;10099882;29;20712;-84
2023/12/13 00:18:11;;;;;;;12.77;2.20;;;;;8.60;99121.00;;;;10101783;29;20278;-85
2023/12/13 00:23:12;;;;;;;16.77;2.10;;;;;8.60;99114.00;;;;10111347;29;20241;-87
2023/12/13 00:28:13;;;;;;;12.77;2.93;;;;;8.70;99112.00;;;;10112752;29;20257;-87
2023/12/13 00:33:15;;;;;;;12.00;2.50;;;;;8.70;99125.00;;;;10113987;29;20326;-88
2023/12/13 00:38:16;;;;;;;15.37;2.23;;;;;8.80;99107.00;;;;10089948;29;20234;-85
2023/12/13 00:43:17;;;;;;;15.53;2.33;;;;;8.80;99104.00;;;;10112186;29;20282;-86
2023/12/13 00:48:18;;;;;;;16.53;3.40;;;;;8.90;99102.00;;;;10117143;29;20314;-81
2023/12/13 00:53:20;;;;;;;14.90;2.77;;;;;8.90;99103.00;;;;10110999;29;20295;-80
2023/12/13 00:58:21;;;;;;;9.83;2.60;;;;;9.00;99111.00;;;;10101440;29;20237;-80
2023/12/13 01:03:22;;;;;;;12.67;2.83;;;;;9.00;99106.00;;;;10123166;29;20258;-80
2023/12/13 01:08:24;;;;;;;12.57;3.17;;;;;9.00;99108.00;;;;10107087;29;20235;-81
2023/12/13 01:13:27;;;;;;;12.53;2.47;;;;;9.10;99101.00;;;;10103965;29;20235;-81
2023/12/13 01:18:29;;;;;;;16.40;2.67;;;;;9.10;99100.00;;;;10105791;29;20353;-81
2023/12/13 01:23:30;;;;;;;13.47;2.70;;;;;9.10;99118.00;;;;10129352;29;20223;-81
2023/12/13 01:28:31;;;;;;;16.83;3.30;;;;;9.10;99100.00;;;;10134621;29;20373;-80
2023/12/13 01:33:32;;;;;;;14.43;2.93;;;;;9.10;99099.00;;;;10112412;29;20873;-80
2023/12/13 01:38:35;;;;;;;14.27;3.27;;;;;9.10;99111.00;;;;10112769;29;20239;-80
2023/12/13 01:43:36;;;;;;;16.30;2.87;;;;;9.10;99110.00;;;;10114022;29;20266;-80
2023/12/13 01:48:38;;;;;;;16.27;2.83;;;;;9.10;99115.00;;;;10116938;29;20247;-81
2023/12/13 01:53:40;;;;;;;17.17;4.13;;;;;9.00;99116.00;;;;10112708;29;20327;-81
2023/12/13 01:58:41;;;;;;;11.90;2.97;;;;;9.00;99117.00;;;;10097509;29;20244;-81
2023/12/13 02:03:43;;;;;;;12.50;3.27;;;;;9.00;99108.00;;;;10107532;29;20243;-79
2023/12/13 02:08:44;;;;;;;16.63;3.20;;;;;9.00;99112.00;;;;10123295;28;20215;-87
2023/12/13 02:13:45;;;;;;;12.27;2.80;;;;;9.00;99105.00;;;;10119219;29;20250;-87
2023/12/13 02:18:47;;;;;;;20.40;3.53;;;;;9.00;99102.00;;;;10098744;28;20227;-86
2023/12/13 02:23:51;;;;;;;17.30;3.10;;;;;8.90;99100.00;;;;10110275;29;20314;-86
2023/12/13 02:28:54;;;;;;;11.10;2.87;;;;;8.90;99096.00;;;;10106809;29;20227;-85
2023/12/13 02:33:55;;;;;;;9.10;2.50;;;;;8.90;99093.00;;;;10111512;29;20244;-88
2023/12/13 02:38:56;;;;;;;12.60;3.07;;;;;8.80;99101.00;;;;10157258;29;20234;-87
2023/12/13 02:43:58;;;;;;;12.00;3.03;;;;;8.80;99091.00;;;;10112973;29;20232;-86
2023/12/13 02:48:59;;;;;;;18.83;3.00;;;;;8.80;99094.00;;;;10113949;29;20326;-87
2023/12/13 02:54:01;;;;;;;13.30;3.03;;;;;8.80;99088.00;;;;10102575;29;20259;-87
2023/12/13 02:59:02;;;;;;;14.70;3.27;;;;;8.80;99087.00;;;;10123517;29;20222;-87
2023/12/13 03:04:04;;;;;;;14.53;3.07;;;;;8.80;99081.00;;;;10105624;29;20231;-89
2023/12/13 03:09:05;;;;;;;11.57;2.93;;;;;8.80;99072.00;;;;10130503;29;20334;-87
2023/12/13 03:14:06;;;;;;;19.40;3.07;;;;;8.80;99063.00;;;;10117487;29;20223;-87
2023/12/13 03:19:08;;;;;;;15.97;3.20;;;;;8.80;99066.00;;;;10096976;29;20231;-84
2023/12/13 03:24:09;;;;;;;9.23;2.40;;;;;8.80;99065.00;;;;10116223;29;20237;-83
2023/12/13 03:29:10;;;;;;;13.00;2.57;;;;;8.90;99056.00;;;;10111029;29;20845;-84
2023/12/13 03:34:11;;;;;;;11.47;2.50;;;;;8.90;99055.00;;;;10091840;29;20226;-83
2023/12/13 03:39:13;;;;;;;11.83;2.67;;;;;8.90;99050.00;;;;10122032;29;20273;-82
2023/12/13 03:44:14;;;;;;;14.40;2.83;;;;;8.90;99053.00;;;;10110073;29;20262;-84
2023/12/13 03:49:16;;;;;;;12.57;2.60;;;;;8.90;99048.00;;;;10116065;29;20238;-83
2023/12/13 03:54:17;;;;;;;16.13;2.60;;;;;8.80;99047.00;;;;10097378;29;20555;-82
2023/12/13 03:59:18;;;;;;;14.47;2.63;;;;;8.80;99052.00;;;;10094292;29;20234;-83
2023/12/13 04:04:19;;;;;;;8.13;2.43;;;;;8.80;99051.00;;;;10114817;29;20593;-83
2023/12/13 04:09:21;;;;;;;16.20;3.07;;;;;8.80;99048.00;;;;10111713;29;20306;-81
2023/12/13 04:14:22;;;;;;;16.07;3.50;;;;;8.70;99039.00;;;;10115688;29;20262;-81
2023/12/13 04:19:24;;;;;;;10.63;2.90;;;;;8.70;99034.00;;;;10097390;29;20243;-80
2023/12/13 04:24:25;;;;;;;12.07;3.07;;;;;8.60;99034.00;;;;10115175;29;20262;-80
2023/12/13 04:29:26;;;;;;;11.10;3.23;;;;;8.60;99032.00;;;;10119250;29;20942;-79
2023/12/13 04:34:27;;;;;;;12.10;2.37;;;;;8.60;99034.00;;;;10111951;29;20286;-80
2023/12/13 04:39:28;;;;;;;11.60;2.77;;;;;8.60;99033.00;;;;10102321;29;20235;-79
2023/12/13 04:44:30;;;;;;;12.23;2.93;;;;;8.60;99032.00;;;;10106726;29;20234;-80
2023/12/13 04:49:32;;;;;;;13.93;2.63;;;;;8.60;99040.00;;;;10122038;29;20342;-82
2023/12/13 04:54:35;;;;;;;10.53;2.53;;;;;8.60;99036.00;;;;10103762;29;20227;-79
2023/12/13 04:59:37;;;;;;;8.37;3.30;;;;;8.60;99033.00;;;;10098604;29;20318;-80
2023/12/13 05:04:38;;;;;;;15.87;2.90;;;;;8.60;99036.00;;;;10107652;29;20262;-79
2023/12/13 05:09:39;;;;;;;14.43;2.83;;;;;8.60;99027.00;;;;10095782;29;20925;-80
2023/12/13 05:14:40;;;;;;;13.77;2.70;;;;;8.60;99029.00;;;;10130070;28;20257;-80
2023/12/13 05:19:41;;;;;;;12.87;3.10;;;;;8.60;99025.00;;;;10124519;29;20318;-79
2023/12/13 05:24:42;;;;;;;18.37;3.60;;;;;8.60;99022.00;;;;10136310;29;20231;-82
2023/12/13 05:29:44;;;;;;;15.80;3.00;;;;;8.60;99023.00;;;;10103389;29;20266;-80
2023/12/13 05:34:45;;;;;;;12.03;2.53;;;;;8.60;99033.00;;;;10099243;28;20246;-83
2023/12/13 05:39:46;;;;;;;13.93;2.90;;;;;8.50;99026.00;;;;10112090;29;20230;-86
2023/12/13 05:44:47;;;;;;;14.87;3.63;;;;;8.50;99020.00;;;;10113303;29;20305;-85
2023/12/13 05:49:48;;;;;;;15.50;3.03;;;;;8.50;99030.00;;;;10123279;29;20234;-86
2023/12/13 05:54:50;;;;;;;14.63;3.30;;;;;8.50;99024.00;;;;10138554;28;20899;-83
2023/12/13 05:59:51;;;;;;;17.70;3.93;;;;;8.50;99017.00;;;;10123876;29;20234;-84
2023/12/13 06:04:52;;;;;;;17.10;4.03;;;;;8.50;99032.00;;;;10117134;29;20227;-83
2023/12/13 06:09:54;;;;;;;14.30;3.30;;;;;8.50;99027.00;;;;10105725;29;20349;-83
2023/12/13 06:14:58;;;;;;;12.60;3.03;;;;;8.50;99029.00;;;;10113823;29;20222;-85
2023/12/13 06:20:00;;;;;;;16.73;3.30;;;;;8.50;99032.00;;;;10100951;29;20235;-84
2023/12/13 06:25:02;;;;;;;16.77;3.37;;;;;8.40;99027.00;;;;10110257;29;20223;-86
2023/12/13 06:30:04;;;;;;;14.00;3.00;;;;;8.40;99029.00;;;;10118344;29;20230;-85
2023/12/13 06:35:06;;;;;;;11.40;2.80;;;;;8.40;99030.00;;;;10123690;29;20318;-85
2023/12/13 06:40:08;;;;;;;18.83;3.77;;;;;8.40;99029.00;;;;10103469;29;20235;-85
2023/12/13 06:45:09;;;;;;;15.97;3.47;;;;;8.40;99031.00;;;;10110165;29;20283;-86
2023/12/13 06:50:10;;;;;;;16.03;3.07;;;;;8.40;99033.00;;;;10126965;29;20285;-82
2023/12/13 06:55:12;;;;;;;14.70;3.40;;;;;8.40;99032.00;;;;10117369;29;20238;-82
2023/12/13 07:00:14;;;;;;;14.97;3.17;;;;;8.40;99027.00;;;;10110902;29;20233;-82
2023/12/13 07:05:15;;;;;;;15.70;4.17;;;;;8.40;99030.00;;;;10115834;29;20235;-83
2023/12/13 07:10:17;;;;;;;16.43;3.43;;;;;8.40;99036.00;;;;10109920;29;20231;-82
2023/12/13 07:15:18;;;;;;;16.20;4.07;;;;;8.40;99043.00;;;;10106614;29;20713;-81
2023/12/13 07:20:21;;;;;;;17.60;3.50;;;;;8.40;99050.00;;;;10122973;29;20314;-80
2023/12/13 07:25:22;;;;;;;18.10;3.60;;;;;8.30;99042.00;;;;10108892;29;20258;-78
2023/12/13 07:30:23;;;;;;;15.37;4.70;;;;;8.30;99050.00;;;;10108737;29;20238;-79
2023/12/13 07:35:26;;;;;;;12.60;3.27;;;;;8.30;99047.00;;;;10094830;29;20290;-79
2023/12/13 07:40:27;;;;;;;13.23;3.27;;;;;8.30;99049.00;;;;10124007;29;20932;-79
2023/12/13 07:45:29;;;;;;;14.57;3.43;;;;;8.30;99048.00;;;;10109444;29;21071;-79
2023/12/13 07:50:30;;;;;;;10.20;3.40;;;;;8.30;99048.00;;;;10126979;29;20257;-80
2023/12/13 07:55:31;;;;;;;12.80;3.57;;;;;8.30;99041.00;;;;10121186;29;20239;-80
2023/12/13 08:00:32;;;;;;;16.23;3.70;;;;;8.20;99056.00;;;;10106437;29;20311;-81
2023/12/13 08:05:34;;;;;;;14.30;2.67;;;;;8.20;99058.00;;;;10104854;29;20229;-83
2023/12/13 08:10:35;;;;;;;14.43;3.40;;;;;8.20;99057.00;;;;10098062;29;20361;-83
2023/12/13 08:15:36;;;;;;;19.43;3.43;;;;;8.30;99057.00;;;;10095135;29;20223;-83
2023/12/13 08:20:37;;;;;;;25.17;4.07;;;;;8.30;99060.00;;;;10118985;29;20681;-83
2023/12/13 08:25:38;;;;;;;13.33;3.30;;;;;8.30;99067.00;;;;10122212;29;20233;-83
2023/12/13 08:30:40;;;;;;;12.13;4.10;;;;;8.30;99066.00;;;;10109235;29;20930;-83
2023/12/13 08:35:41;;;;;;;15.80;3.70;;;;;8.40;99081.00;;;;10136056;29;20235;-83
2023/12/13 08:40:42;;;;;;;11.23;3.07;;;;;8.40;99081.00;;;;10107637;29;20230;-81
2023/12/13 08:45:44;;;;;;;15.83;3.60;;;;;8.40;99082.00;;;;10109054;29;20326;-81
2023/12/13 08:50:46;;;;;;;15.00;3.60;;;;;8.40;99078.00;;;;10108403;29;20689;-82
2023/12/13 08:55:47;;;;;;;19.30;3.93;;;;;8.50;99096.00;;;;10120126;29;20246;-82
2023/12/13 09:00:49;;;;;;;14.57;4.33;;;;;8.60;99097.00;;;;10109921;29;21165;-84
2023/12/13 09:05:50;;;;;;;17.40;5.23;;;;;8.70;99093.00;;;;10098765;29;20322;-84
2023/12/13 09:10:51;;;;;;;17.73;4.30;;;;;9.00;99103.00;;;;10124884;29;20726;-83
2023/12/13 09:15:53;;;;;;;20.00;4.17;;;;;9.10;99098.00;;;;10108569;29;20614;-82
2023/12/13 09:20:54;;;;;;;11.97;4.27;;;;;9.10;99106.00;;;;10107297;29;20226;-81
2023/12/13 09:25:58;;;;;;;18.53;4.70;;;;;9.00;99108.00;;;;10098389;29;20227;-84
2023/12/13 09:30:59;;;;;;;17.33;4.27;;;;;9.00;99107.00;;;;10099983;29;20253;-84
2023/12/13 09:36:01;;;;;;;14.40;4.40;;;;;9.00;99115.00;;;;10113149;29;20222;-81
2023/12/13 09:41:02;;;;;;;12.53;4.73;;;;;9.00;99117.00;;;;10128957;29;20253;-84
2023/12/13 09:46:05;;;;;;;16.50;4.17;;;;;9.00;99116.00;;;;10112549;29;20238;-83
2023/12/13 09:51:10;;;;;;;15.17;4.53;;;;;9.00;99128.00;;;;10094028;29;20235;-81
2023/12/13 09:56:12;;;;;;;16.30;4.93;;;;;9.00;99133.00;;;;10101654;29;20259;-82
2023/12/13 10:01:15;;;;;;;14.37;4.93;;;;;9.30;99125.00;;;;10106851;29;20241;-82
2023/12/13 10:06:16;;;;;;;18.53;5.10;;;;;9.60;99127.00;;;;10113712;29;20275;-82
2023/12/13 10:11:17;;;;;;;15.27;6.10;;;;;9.90;99133.00;;;;10103944;29;20262;-83
2023/12/13 10:16:19;;;;;;;15.57;5.23;;;;;9.80;99135.00;;;;10091618;29;20229;-84
2023/12/13 10:21:20;;;;;;;16.23;5.33;;;;;9.60;99133.00;;;;10100441;29;20265;-83
2023/12/13 10:26:21;;;;;;;17.90;4.93;;;;;9.60;99132.00;;;;10093312;29;20932;-84
2023/12/13 10:31:22;;;;;;;14.80;4.90;;;;;9.60;99135.00;;;;10088595;29;20299;-82
2023/12/13 10:36:26;;;;;;;10.97;4.97;;;;;9.80;99139.00;;;;10098147;29;20324;-82
2023/12/13 10:41:27;;;;;;;10.40;4.83;;;;;9.80;99142.00;;;;10107232;29;20249;-82
2023/12/13 10:46:35;;;;;;;13.00;4.20;;;;;9.90;99134.00;;;;10110981;29;20310;-81
2023/12/13 10:51:38;;;;;;;10.37;3.93;;;;;9.90;99137.00;;;;10093520;29;20228;-81
2023/12/13 10:56:39;;;;;;;10.87;4.30;;;;;9.90;99144.00;;;;10125656;29;20906;-81
2023/12/13 11:01:45;;;;;;;13.97;4.30;;;;;9.80;99151.00;;;;10127618;29;20238;-83
2023/12/13 11:06:47;;;;;;;12.63;3.93;;;;;9.80;99142.00;;;;10109989;29;20286;-83
2023/12/13 11:11:49;;;;;;;14.47;5.10;;;;;9.70;99144.00;;;;10124579;29;20329;-82
2023/12/13 11:16:50;;;;;;;17.23;4.63;;;;;10.10;99135.00;;;;10127358;29;20233;-83
2023/12/13 11:21:52;;;;;;;12.83;5.17;;;;;10.40;99139.00;;;;10105727;29;20287;-83
2023/12/13 11:26:55;;;;;;;11.27;4.87;;;;;10.70;99130.00;;;;10121510;28;20231;-88
2023/12/13 11:38:08;;;;;;;11.30;5.00;;;;;10.60;99145.00;;;;12117976;23;20223;31
2023/12/13 11:43:43;;;;;;;15.47;4.53;;;;;10.20;99155.00;;;;3070032;24;20230;-87
2023/12/13 11:48:45;;;;;;;8.87;5.40;;;;;10.00;99151.00;;;;10107270;29;20236;-87
2023/12/13 11:53:48;;;;;;;13.27;5.63;;;;;10.10;99149.00;;;;10107132;29;20307;-87
2023/12/13 11:58:50;;;;;;;12.57;4.97;;;;;10.10;99153.00;;;;10085682;29;20231;-87
2023/12/13 12:03:52;;;;;;;13.47;5.10;;;;;10.00;99158.00;;;;10092888;29;20224;-87
2023/12/13 12:08:53;;;;;;;13.73;4.93;;;;;10.00;99151.00;;;;10085005;29;20239;-86
2023/12/13 12:13:55;;;;;;;7.97;4.77;;;;;9.70;99159.00;;;;10084817;29;20223;-87
2023/12/13 12:18:56;;;;;;;10.93;5.43;;;;;9.60;99157.00;;;;10085977;29;20935;-87
2023/12/13 12:24:01;;;;;;;9.17;5.40;;;;;9.60;99154.00;;;;10085552;29;20260;-89
2023/12/13 12:29:02;;;;;;;13.73;6.37;;;;;9.90;99155.00;;;;10069848;29;20234;-87
2023/12/13 12:34:04;;;;;;;11.87;6.37;;;;;10.30;99150.00;;;;10084530;29;20244;-87
2023/12/13 12:39:05;;;;;;;12.97;6.40;;;;;10.10;99150.00;;;;10086064;29;20363;-80
2023/12/13 12:44:07;;;;;;;15.07;7.60;;;;;9.90;99158.00;;;;10070735;29;20235;-81
2023/12/13 12:49:08;;;;;;;10.23;6.53;;;;;9.90;99162.00;;;;10069938;29;20235;-81
2023/12/13 12:54:11;;;;;;;12.10;7.07;;;;;9.90;99167.00;;;;10068781;29;20237;-80
2023/12/13 12:59:14;;;;;;;13.47;7.40;;;;;10.00;99163.00;;;;10070057;29;20584;-82
2023/12/13 13:04:15;;;;;;;16.90;11.00;;;;;10.20;99165.00;;;;10065650;29;20315;-80
2023/12/13 13:09:17;;;;;;;14.10;8.20;;;;;10.20;99165.00;;;;10061914;29;20960;-81
2023/12/13 13:14:19;;;;;;;11.13;6.40;;;;;10.20;99162.00;;;;10052606;29;21143;-80
2023/12/13 13:19:20;;;;;;;12.17;7.20;;;;;10.00;99173.00;;;;10052396;29;20318;-80
2023/12/13 13:24:22;;;;;;;9.33;7.57;;;;;9.80;99174.00;;;;10098580;29;20230;-80
2023/12/13 13:29:24;;;;;;;13.47;8.40;;;;;9.70;99177.00;;;;10107817;29;20259;-80
2023/12/13 13:34:25;;;;;;;16.23;8.10;;;;;9.70;99172.00;;;;10108328;29;20261;-80
2023/12/13 13:39:26;;;;;;;15.10;8.00;;;;;9.60;99183.00;;;;10103834;29;20614;-80
2023/12/13 13:44:27;;;;;;;13.47;8.27;;;;;9.40;99183.00;;;;10109013;29;20227;-85
2023/12/13 13:49:28;;;;;;;15.77;7.80;;;;;9.20;99194.00;;;;10699202;23;20228;-88
2023/12/13 13:54:30;;;;;;;12.77;7.70;;;;;9.10;99202.00;;;;10224847;23;20947;-87
2023/12/13 13:59:31;;;;;;;15.80;8.77;;;;;9.00;99195.00;;;;10074209;29;20251;-84
2023/12/13 14:04:33;;;;;;;14.37;7.80;;;;;8.90;99194.00;;;;10060353;29;20254;-84
2023/12/13 14:09:34;;;;;;;14.80;7.77;;;;;8.90;99197.00;;;;10073362;29;20277;-84
2023/12/13 14:14:35;;;;;;;14.53;10.27;;;;;8.90;99202.00;;;;10061550;29;20267;-84
2023/12/13 14:19:38;;;;;;;14.23;9.17;;;;;9.10;99206.00;;;;10060554;29;20307;-83
2023/12/13 14:24:39;;;;;;;15.60;10.00;;;;;9.30;99212.00;;;;10058144;29;20263;-84
2023/12/13 14:29:40;;;;;;;17.33;10.07;;;;;9.40;99214.00;;;;10072960;29;20236;-86
2023/12/13 14:34:41;;;;;;;14.57;9.80;;;;;9.50;99209.00;;;;10056495;29;20306;-85
2023/12/13 14:39:43;;;;;;;16.67;9.63;;;;;9.50;99218.00;;;;10066911;29;20236;-85
2023/12/13 14:44:44;;;;;;;16.13;9.47;;;;;9.40;99221.00;;;;10073859;29;21047;-85
2023/12/13 14:49:45;;;;;;;19.43;11.77;;;;;9.30;99234.00;;;;10076396;29;20242;-85
2023/12/13 14:54:46;;;;;;;16.33;10.03;;;;;9.20;99243.00;;;;10074539;29;20745;-86
2023/12/13 14:59:47;;;;;;;18.23;10.10;;;;;9.10;99261.00;;;;10078110;29;20258;-85
2023/12/13 15:04:49;;;;;;;15.33;9.67;;;;;9.10;99269.00;;;;10076517;29;20298;-85
2023/12/13 15:09:50;;;;;;;19.00;10.70;;;;;9.10;99268.00;;;;10076958;29;20318;-84
2023/12/13 15:14:51;;;;;;;14.17;10.07;;;;;9.00;99272.00;;;;10092874;29;20642;-87
2023/12/13 15:19:53;;;;;;;17.33;9.90;;;;;9.00;99276.00;;;;10058138;29;20299;-83
2023/12/13 15:24:55;;;;;;;19.17;11.13;;;;;8.80;99290.00;;;;10115179;29;20256;-84
2023/12/13 15:29:58;;;;;;;16.73;11.10;;;;;8.70;99307.00;;;;10108952;29;20219;-84
2023/12/13 15:35:04;;;;;;;14.17;10.77;;;;;8.70;99320.00;;;;10109027;29;20247;-85
2023/12/13 15:40:10;;;;;;;15.37;10.33;;;;;8.60;99324.00;;;;10125743;29;20279;-86
2023/12/13 15:45:13;;;;;;;16.80;11.73;;;;;8.60;99331.00;;;;10121369;29;20231;-83
2023/12/13 15:50:23;;;;;;;21.40;13.17;;;;;8.60;99341.00;;;;10117888;29;20241;-85
2023/12/13 15:55:25;;;;;;;18.57;12.03;;;;;8.50;99341.00;;;;10108567;29;20321;-83
2023/12/13 16:00:27;;;;;;;21.47;12.97;;;;;8.50;99362.00;;;;10083158;29;21023;-84
2023/12/13 16:05:32;;;;;;;21.87;12.77;;;;;8.50;99370.00;;;;10083838;29;20314;-83
2023/12/13 16:10:37;;;;;;;19.90;13.30;;;;;8.40;99370.00;;;;10075796;29;20231;-81
2023/12/13 16:15:44;;;;;;;21.37;12.87;;;;;8.40;99381.00;;;;10129121;29;20238;-81
2023/12/13 16:20:47;;;;;;;24.57;15.77;;;;;8.40;99382.00;;;;10088344;29;20243;-81
2023/12/13 16:25:50;;;;;;;29.33;18.57;;;;;8.50;99402.00;;;;10093700;29;20306;-81
2023/12/13 16:30:53;;;;;;;25.53;18.07;;;;;8.40;99413.00;;;;10104308;29;20231;-81
2023/12/13 16:35:55;;;;;;;24.73;16.37;;;;;8.50;99415.00;;;;10099012;29;20874;-82
2023/12/13 16:40:57;;;;;;;28.47;18.57;;;;;8.50;99428.00;;;;10102373;29;20807;-81
2023/12/13 16:46:00;;;;;;;36.90;25.17;;;;;8.50;99431.00;;;;10087573;29;20321;-82
2023/12/13 16:51:05;;;;;;;33.00;20.33;;;;;8.50;99451.00;;;;10098598;29;20382;-82
2023/12/13 16:56:08;;;;;;;30.10;20.50;;;;;8.40;99456.00;;;;10102213;29;20231;-82
2023/12/13 17:01:15;;;;;;;27.00;18.43;;;;;8.40;99465.00;;;;10104674;29;20260;-82
2023/12/13 17:06:19;;;;;;;33.13;20.07;;;;;8.40;99477.00;;;;10078460;29;20222;-82
2023/12/13 17:11:24;;;;;;;35.57;22.97;;;;;8.40;99480.00;;;;10096052;29;20242;-82
2023/12/13 17:16:33;;;;;;;36.47;24.27;;;;;8.40;99487.00;;;;10124373;29;20230;-82
2023/12/13 17:21:47;;;;;;;31.90;21.87;;;;;8.40;99498.00;;;;10081212;29;20257;-85
2023/12/13 17:26:49;;;;;;;41.07;24.63;;;;;8.40;99510.00;;;;10100385;29;20758;-85
2023/12/13 17:31:54;;;;;;;35.80;21.47;;;;;8.40;99515.00;;;;10114162;29;20226;-86
2023/12/13 17:36:58;;;;;;;30.53;21.07;;;;;8.30;99533.00;;;;10089487;29;20230;-85
2023/12/13 17:41:59;;;;;;;32.83;19.60;;;;;8.10;99539.00;;;;10095494;29;20231;-86
2023/12/13 17:47:00;;;;;;;30.00;21.07;;;;;8.10;99565.00;;;;10094535;29;20835;-86
2023/12/13 17:52:05;;;;;;;34.07;23.33;;;;;8.10;99575.00;;;;10104392;29;20234;-86
2023/12/13 17:57:06;;;;;;;31.30;20.37;;;;;8.10;99584.00;;;;10105685;29;20309;-85
2023/12/13 18:02:08;;;;;;;35.90;23.07;;;;;8.20;99597.00;;;;10080817;29;20235;-80
2023/12/13 18:07:09;;;;;;;39.50;26.50;;;;;8.20;99605.00;;;;10086125;29;20223;-80
2023/12/13 18:12:10;;;;;;;38.63;23.60;;;;;8.20;99610.00;;;;10091195;29;20259;-81
2023/12/13 18:17:12;;;;;;;36.93;20.73;;;;;8.20;99622.00;;;;10105495;29;20290;-80
2023/12/13 18:22:14;;;;;;;36.73;21.90;;;;;8.20;99618.00;;;;10122869;29;20314;-79
2023/12/13 18:27:15;;;;;;;38.73;22.13;;;;;8.20;99638.00;;;;10085099;29;20254;-80
2023/12/13 18:32:16;;;;;;;40.30;22.63;;;;;8.10;99641.00;;;;10086439;29;20257;-80
2023/12/13 18:37:18;;;;;;;35.93;22.07;;;;;8.10;99653.00;;;;10104249;29;20255;-82
2023/12/13 18:42:19;;;;;;;43.90;21.50;;;;;8.10;99661.00;;;;10103423;29;20230;-82
2023/12/13 18:47:21;;;;;;;41.73;22.30;;;;;8.10;99669.00;;;;10104828;29;20645;-79
2023/12/13 18:52:22;;;;;;;35.10;21.73;;;;;8.10;99678.00;;;;10096469;29;20325;-80
2023/12/13 18:57:24;;;;;;;41.43;20.03;;;;;8.10;99695.00;;;;10099583;29;20231;-80
2023/12/13 19:02:25;;;;;;;40.77;22.37;;;;;8.10;99700.00;;;;10104283;29;20262;-79
2023/12/13 19:07:26;;;;;;;37.67;22.23;;;;;8.10;99712.00;;;;10092651;29;20939;-80
2023/12/13 19:12:28;;;;;;;40.13;24.20;;;;;8.10;99718.00;;;;10107712;29;20223;-80
2023/12/13 19:17:29;;;;;;;36.70;21.53;;;;;8.10;99723.00;;;;10110297;29;20827;-80
2023/12/13 19:22:33;;;;;;;37.23;22.17;;;;;8.10;99736.00;;;;10121535;29;20235;-80
2023/12/13 19:27:34;;;;;;;36.20;20.20;;;;;8.10;99746.00;;;;10090669;29;21220;-80
2023/12/13 19:32:36;;;;;;;39.20;22.30;;;;;8.10;99756.00;;;;10089279;29;20233;-80
2023/12/13 19:37:38;;;;;;;47.93;23.53;;;;;8.20;99764.00;;;;10118026;29;20691;-80
2023/12/13 19:42:44;;;;;;;38.63;21.70;;;;;8.20;99777.00;;;;10095737;29;20235;-81
2023/12/13 19:47:45;;;;;;;46.40;24.87;;;;;8.20;99799.00;;;;10121300;29;20239;-81
2023/12/13 19:52:46;;;;;;;44.83;25.07;;;;;8.20;99810.00;;;;10094548;29;20250;-80
2023/12/13 19:57:48;;;;;;;38.97;23.43;;;;;8.20;99821.00;;;;10124683;29;20838;-80
2023/12/13 20:02:49;;;;;;;42.63;25.37;;;;;8.20;99841.00;;;;10123786;29;20317;-80
2023/12/13 20:07:50;;;;;;;52.37;25.07;;;;;8.20;99842.00;;;;10098544;29;20238;-80
2023/12/13 20:12:52;;;;;;;50.10;25.53;;;;;8.20;99845.00;;;;10108389;29;20279;-80
2023/12/13 20:17:53;;;;;;;49.13;25.90;;;;;8.20;99861.00;;;;10090814;29;20230;-86
2023/12/13 20:22:54;;;;;;;50.70;27.93;;;;;8.30;99866.00;;;;10117376;29;20242;-84
2023/12/13 20:27:56;;;;;;;53.50;28.30;;;;;8.30;99889.00;;;;10104208;29;20694;-86
2023/12/13 20:32:57;;;;;;;54.50;27.87;;;;;8.30;99891.00;;;;10109555;29;21003;-85
2023/12/13 20:37:59;;;;;;;57.43;28.10;;;;;8.30;99900.00;;;;10089299;29;20913;-86
2023/12/13 20:43:02;;;;;;;57.07;28.90;;;;;8.30;99913.00;;;;10095042;29;20234;-85
2023/12/13 20:48:04;;;;;;;62.03;30.77;;;;;8.30;99916.00;;;;10106836;29;20265;-83
2023/12/13 20:53:05;;;;;;;61.50;29.23;;;;;8.30;99928.00;;;;10106342;29;20227;-87
2023/12/13 20:58:07;;;;;;;56.60;29.03;;;;;8.30;99942.00;;;;10088018;29;20559;-84
2023/12/13 21:03:08;;;;;;;58.27;28.53;;;;;8.20;99943.00;;;;10081495;29;20261;-84
2023/12/13 21:08:09;;;;;;;63.67;30.50;;;;;8.20;99955.00;;;;10102017;29;20223;-84
2023/12/13 21:13:10;;;;;;;57.07;27.07;;;;;8.20;99964.00;;;;10104246;29;20222;-84
2023/12/13 21:18:11;;;;;;;64.03;29.50;;;;;8.20;99970.00;;;;10103129;29;20258;-82
2023/12/13 21:23:14;;;;;;;63.27;29.17;;;;;8.20;99987.00;;;;10093149;29;20230;-85
2023/12/13 21:28:17;;;;;;;62.13;29.10;;;;;8.20;100001.00;;;;10094531;29;20227;-81
2023/12/13 21:33:18;;;;;;;59.40;28.27;;;;;8.20;100006.00;;;;10088238;29;20302;-81
2023/12/13 21:38:20;;;;;;;50.20;24.07;;;;;8.20;100015.00;;;;10122396;29;20298;-82
2023/12/13 21:43:21;;;;;;;48.03;22.77;;;;;8.10;100027.00;;;;10103413;29;20238;-81
2023/12/13 21:48:22;;;;;;;47.43;22.27;;;;;8.00;100045.00;;;;10103731;29;20860;-81
2023/12/13 21:53:23;;;;;;;45.47;20.63;;;;;8.00;100056.00;;;;10119984;29;20230;-81
2023/12/13 21:58:25;;;;;;;44.27;20.17;;;;;7.90;100057.00;;;;10119297;29;20650;-81
2023/12/13 22:03:28;;;;;;;43.63;19.27;;;;;7.90;100061.00;;;;10085748;29;20230;-81
2023/12/13 22:08:29;;;;;;;46.97;21.33;;;;;7.90;100076.00;;;;10085109;29;20575;-81
2023/12/13 22:13:32;;;;;;;46.50;23.03;;;;;7.90;100090.00;;;;10075980;29;20233;-81
2023/12/13 22:18:40;;;;;;;49.07;22.63;;;;;7.90;100092.00;;;;10092958;29;20260;-81
2023/12/13 22:23:41;;;;;;;52.23;25.73;;;;;7.90;100109.00;;;;10102432;29;20227;-82
2023/12/13 22:28:53;;;;;;;57.03;25.77;;;;;7.90;100118.00;;;;10103789;29;20265;-82
2023/12/13 22:33:54;;;;;;;65.73;27.67;;;;;8.00;100132.00;;;;10102385;29;20222;-81
2023/12/13 22:38:56;;;;;;;61.47;26.23;;;;;8.00;100143.00;;;;10092957;29;20914;-82
2023/12/13 22:43:57;;;;;;;66.23;27.77;;;;;8.00;100149.00;;;;10116398;29;20306;-82
2023/12/13 22:48:58;;;;;;;65.23;28.27;;;;;8.00;100167.00;;;;10100044;29;20302;-83
2023/12/13 22:54:01;;;;;;;80.07;29.47;;;;;8.00;100168.00;;;;10095390;29;20254;-83
2023/12/13 22:59:02;;;;;;;65.40;29.23;;;;;8.00;100185.00;;;;10096773;29;20241;-82
2023/12/13 23:04:05;;;;;;;79.33;31.07;;;;;8.10;100192.00;;;;10114938;29;20900;-81
2023/12/13 23:09:12;;;;;;;76.33;32.40;;;;;8.10;100202.00;;;;10115025;29;20238;-82
2023/12/13 23:14:13;;;;;;;78.97;32.37;;;;;8.10;100218.00;;;;10116287;29;20230;-83
2023/12/13 23:19:14;;;;;;;82.87;33.03;;;;;8.10;100225.00;;;;10108072;29;20374;-86
2023/12/13 23:24:15;;;;;;;80.60;32.43;;;;;8.10;100232.00;;;;10113046;29;20246;-82
2023/12/13 23:29:17;;;;;;;89.23;35.33;;;;;8.10;100236.00;;;;10084490;29;20246;-84
2023/12/13 23:34:18;;;;;;;86.20;33.47;;;;;8.10;100250.00;;;;10093829;29;20227;-82
2023/12/13 23:39:20;;;;;;;81.47;32.77;;;;;8.20;100256.00;;;;10108897;29;20310;-83
2023/12/13 23:44:21;;;;;;;83.17;33.03;;;;;8.20;100273.00;;;;10121341;29;20286;-82
2023/12/13 23:49:22;;;;;;;91.27;35.37;;;;;8.20;100289.00;;;;10108180;29;20231;-86
2023/12/13 23:54:23;;;;;;;91.17;33.27;;;;;8.20;100303.00;;;;10110873;29;20282;-85
2023/12/13 23:59:25;;;;;;;88.27;33.90;;;;;8.20;100307.00;;;;10090369;29;20609;-86
